Pennington, Minnesota
Current Conditions -  °F | °C
As of 4:12 AM on Friday 19 Dec 2014 (Local Time) from KBJI Reporting Station
Light Snow Light Snow  
Wind Chill:   Ceiling: 1000
Heat Index: 19°   Visibility: 5mi
Dew Point: 15°   Wind: 8mph
Humidity: 87%   Direction: 150°SSE
Pressure: 30.14"   Gusts: NA
Location:  47.48°N, 94.48°W
Report Text: KBJI 191012Z AUTO 15007KT 5SM -SN OVC010 M07/M09 A3014 RMK AO2 T10751093
Loading
Personal Weather Stations






























Interactive Weather Map New forecast layout! Learn more

10-Day Weather Forecast

Advertisements
Track Severe Weather on mobile